sensor_id;sensor_type;location;lat;lon;timestamp;temperature;humidity
35497;DHT22;21609;49.298;6.844;2022-11-15T00:01:35;19.80;54.60
35497;DHT22;21609;49.298;6.844;2022-11-15T00:04:03;19.80;54.50
35497;DHT22;21609;49.298;6.844;2022-11-15T00:06:28;19.80;54.60
35497;DHT22;21609;49.298;6.844;2022-11-15T00:08:54;19.80;54.50
35497;DHT22;21609;49.298;6.844;2022-11-15T00:11:20;19.80;54.60
35497;DHT22;21609;49.298;6.844;2022-11-15T00:13:45;19.80;54.60
35497;DHT22;21609;49.298;6.844;2022-11-15T00:16:11;19.80;54.60
35497;DHT22;21609;49.298;6.844;2022-11-15T00:18:38;19.80;54.60
35497;DHT22;21609;49.298;6.844;2022-11-15T00:21:10;19.70;54.60
35497;DHT22;21609;49.298;6.844;2022-11-15T00:23:36;19.70;54.60
35497;DHT22;21609;49.298;6.844;2022-11-15T00:26:02;19.70;54.60
35497;DHT22;21609;49.298;6.844;2022-11-15T00:28:28;19.70;54.60
35497;DHT22;21609;49.298;6.844;2022-11-15T00:31:03;19.60;54.60
35497;DHT22;21609;49.298;6.844;2022-11-15T00:33:29;19.60;54.60
35497;DHT22;21609;49.298;6.844;2022-11-15T00:36:00;19.70;54.60
35497;DHT22;21609;49.298;6.844;2022-11-15T00:38:30;19.60;54.60
35497;DHT22;21609;49.298;6.844;2022-11-15T00:40:56;19.60;54.60
35497;DHT22;21609;49.298;6.844;2022-11-15T00:43:22;19.60;54.70
35497;DHT22;21609;49.298;6.844;2022-11-15T00:45:47;19.60;54.70
35497;DHT22;21609;49.298;6.844;2022-11-15T00:48:13;19.60;54.60
35497;DHT22;21609;49.298;6.844;2022-11-15T00:50:39;19.60;54.70
35497;DHT22;21609;49.298;6.844;2022-11-15T00:53:04;19.60;54.70
35497;DHT22;21609;49.298;6.844;2022-11-15T00:55:30;19.60;54.70
35497;DHT22;21609;49.298;6.844;2022-11-15T00:57:56;19.60;54.70
35497;DHT22;21609;49.298;6.844;2022-11-15T01:00:21;19.50;54.60
35497;DHT22;21609;49.298;6.844;2022-11-15T01:02:47;19.50;54.70
35497;DHT22;21609;49.298;6.844;2022-11-15T01:05:12;19.50;54.70
35497;DHT22;21609;49.298;6.844;2022-11-15T01:07:38;19.50;54.70
35497;DHT22;21609;49.298;6.844;2022-11-15T01:10:04;19.50;54.70
35497;DHT22;21609;49.298;6.844;2022-11-15T01:12:30;19.50;54.70
35497;DHT22;21609;49.298;6.844;2022-11-15T01:14:56;19.50;54.70
35497;DHT22;21609;49.298;6.844;2022-11-15T01:17:21;19.50;54.80
35497;DHT22;21609;49.298;6.844;2022-11-15T01:19:47;19.50;54.80
35497;DHT22;21609;49.298;6.844;2022-11-15T01:22:13;19.50;54.80
35497;DHT22;21609;49.298;6.844;2022-11-15T01:24:38;19.50;54.80
35497;DHT22;21609;49.298;6.844;2022-11-15T01:27:04;19.40;54.80
35497;DHT22;21609;49.298;6.844;2022-11-15T01:29:29;19.40;54.80
35497;DHT22;21609;49.298;6.844;2022-11-15T01:31:55;19.40;54.80
35497;DHT22;21609;49.298;6.844;2022-11-15T01:34:21;19.40;54.80
35497;DHT22;21609;49.298;6.844;2022-11-15T01:36:46;19.40;54.80
35497;DHT22;21609;49.298;6.844;2022-11-15T01:39:12;19.40;54.80
35497;DHT22;21609;49.298;6.844;2022-11-15T01:41:37;19.40;54.80
35497;DHT22;21609;49.298;6.844;2022-11-15T01:46:57;19.40;55.00
35497;DHT22;21609;49.298;6.844;2022-11-15T01:49:24;19.30;54.80
35497;DHT22;21609;49.298;6.844;2022-11-15T01:51:51;19.30;54.80
35497;DHT22;21609;49.298;6.844;2022-11-15T01:54:19;19.30;54.80
35497;DHT22;21609;49.298;6.844;2022-11-15T01:56:50;19.30;54.90
35497;DHT22;21609;49.298;6.844;2022-11-15T01:59:18;19.30;54.90
35497;DHT22;21609;49.298;6.844;2022-11-15T02:01:44;19.30;54.90
35497;DHT22;21609;49.298;6.844;2022-11-15T02:04:17;19.30;54.90
35497;DHT22;21609;49.298;6.844;2022-11-15T02:06:46;19.30;54.90
35497;DHT22;21609;49.298;6.844;2022-11-15T02:09:13;19.30;54.90
35497;DHT22;21609;49.298;6.844;2022-11-15T02:11:39;19.30;55.00
35497;DHT22;21609;49.298;6.844;2022-11-15T02:14:05;19.20;54.90
35497;DHT22;21609;49.298;6.844;2022-11-15T02:16:48;19.20;54.90
35497;DHT22;21609;49.298;6.844;2022-11-15T02:19:26;19.20;55.00
35497;DHT22;21609;49.298;6.844;2022-11-15T02:25:01;19.20;55.10
35497;DHT22;21609;49.298;6.844;2022-11-15T02:30:27;19.20;55.00
35497;DHT22;21609;49.298;6.844;2022-11-15T02:33:14;19.20;55.10
35497;DHT22;21609;49.298;6.844;2022-11-15T02:36:02;19.10;55.00
35497;DHT22;21609;49.298;6.844;2022-11-15T02:38:34;19.10;55.10
35497;DHT22;21609;49.298;6.844;2022-11-15T02:41:10;19.20;55.10
35497;DHT22;21609;49.298;6.844;2022-11-15T02:43:43;19.10;55.10
35497;DHT22;21609;49.298;6.844;2022-11-15T02:46:43;19.10;55.10
35497;DHT22;21609;49.298;6.844;2022-11-15T02:49:37;19.10;55.20
35497;DHT22;21609;49.298;6.844;2022-11-15T02:52:04;19.10;55.10
35497;DHT22;21609;49.298;6.844;2022-11-15T02:54:31;19.10;55.10
35497;DHT22;21609;49.298;6.844;2022-11-15T02:57:04;19.10;55.20
35497;DHT22;21609;49.298;6.844;2022-11-15T03:07:43;19.00;55.20
35497;DHT22;21609;49.298;6.844;2022-11-15T03:10:36;19.00;55.10
35497;DHT22;21609;49.298;6.844;2022-11-15T03:16:04;19.00;55.30
35497;DHT22;21609;49.298;6.844;2022-11-15T03:18:35;19.00;55.30
35497;DHT22;21609;49.298;6.844;2022-11-15T03:21:04;19.00;55.20
35497;DHT22;21609;49.298;6.844;2022-11-15T03:23:31;19.00;55.20
35497;DHT22;21609;49.298;6.844;2022-11-15T03:25:59;19.00;55.20
35497;DHT22;21609;49.298;6.844;2022-11-15T03:28:34;19.00;55.20
35497;DHT22;21609;49.298;6.844;2022-11-15T03:31:01;18.90;55.20
35497;DHT22;21609;49.298;6.844;2022-11-15T03:33:49;18.90;55.20
35497;DHT22;21609;49.298;6.844;2022-11-15T03:36:16;18.90;55.20
35497;DHT22;21609;49.298;6.844;2022-11-15T03:38:43;18.90;55.20
35497;DHT22;21609;49.298;6.844;2022-11-15T03:41:22;18.90;55.20
35497;DHT22;21609;49.298;6.844;2022-11-15T03:44:00;18.90;55.30
35497;DHT22;21609;49.298;6.844;2022-11-15T03:49:20;18.90;55.30
35497;DHT22;21609;49.298;6.844;2022-11-15T03:51:47;18.80;55.30
35497;DHT22;21609;49.298;6.844;2022-11-15T03:54:13;18.80;55.30
35497;DHT22;21609;49.298;6.844;2022-11-15T03:56:39;18.80;55.30
35497;DHT22;21609;49.298;6.844;2022-11-15T03:59:04;18.80;55.30
35497;DHT22;21609;49.298;6.844;2022-11-15T04:01:30;18.80;55.30
35497;DHT22;21609;49.298;6.844;2022-11-15T04:03:55;18.80;55.30
35497;DHT22;21609;49.298;6.844;2022-11-15T04:06:21;18.80;55.30
35497;DHT22;21609;49.298;6.844;2022-11-15T04:08:46;18.80;55.30
35497;DHT22;21609;49.298;6.844;2022-11-15T04:11:12;18.80;55.40
35497;DHT22;21609;49.298;6.844;2022-11-15T04:13:38;18.80;55.40
35497;DHT22;21609;49.298;6.844;2022-11-15T04:16:03;18.80;55.40
35497;DHT22;21609;49.298;6.844;2022-11-15T04:18:29;18.80;55.40
35497;DHT22;21609;49.298;6.844;2022-11-15T04:20:54;18.70;55.30
35497;DHT22;21609;49.298;6.844;2022-11-15T04:23:38;18.80;55.40
35497;DHT22;21609;49.298;6.844;2022-11-15T04:26:23;18.80;55.40
35497;DHT22;21609;49.298;6.844;2022-11-15T04:28:48;18.70;55.40
35497;DHT22;21609;49.298;6.844;2022-11-15T04:31:33;18.70;55.50
35497;DHT22;21609;49.298;6.844;2022-11-15T04:33:58;18.70;55.40
35497;DHT22;21609;49.298;6.844;2022-11-15T04:36:24;18.70;55.50
35497;DHT22;21609;49.298;6.844;2022-11-15T04:39:09;18.70;55.50
35497;DHT22;21609;49.298;6.844;2022-11-15T04:41:35;18.70;55.50
35497;DHT22;21609;49.298;6.844;2022-11-15T04:44:00;18.70;55.50
35497;DHT22;21609;49.298;6.844;2022-11-15T04:46:26;18.70;55.50
35497;DHT22;21609;49.298;6.844;2022-11-15T04:48:53;18.70;55.50
35497;DHT22;21609;49.298;6.844;2022-11-15T04:51:19;18.70;55.50
35497;DHT22;21609;49.298;6.844;2022-11-15T04:53:45;18.60;55.50
35497;DHT22;21609;49.298;6.844;2022-11-15T04:56:11;18.70;55.50
35497;DHT22;21609;49.298;6.844;2022-11-15T04:58:37;18.70;55.50
35497;DHT22;21609;49.298;6.844;2022-11-15T05:01:10;18.60;55.50
35497;DHT22;21609;49.298;6.844;2022-11-15T05:03:36;18.60;55.50
35497;DHT22;21609;49.298;6.844;2022-11-15T05:06:20;18.60;55.50
35497;DHT22;21609;49.298;6.844;2022-11-15T05:08:45;18.60;55.50
35497;DHT22;21609;49.298;6.844;2022-11-15T05:11:11;18.60;55.50
35497;DHT22;21609;49.298;6.844;2022-11-15T05:13:37;18.60;55.50
35497;DHT22;21609;49.298;6.844;2022-11-15T05:16:02;18.60;55.60
35497;DHT22;21609;49.298;6.844;2022-11-15T05:18:28;18.60;55.60
35497;DHT22;21609;49.298;6.844;2022-11-15T05:20:53;18.60;55.60
35497;DHT22;21609;49.298;6.844;2022-11-15T05:23:19;18.60;55.60
35497;DHT22;21609;49.298;6.844;2022-11-15T05:25:45;18.60;55.60
35497;DHT22;21609;49.298;6.844;2022-11-15T05:28:10;18.60;55.60
35497;DHT22;21609;49.298;6.844;2022-11-15T05:30:36;18.60;55.60
35497;DHT22;21609;49.298;6.844;2022-11-15T05:33:01;18.60;56.20
35497;DHT22;21609;49.298;6.844;2022-11-15T05:35:31;18.60;55.60
35497;DHT22;21609;49.298;6.844;2022-11-15T05:37:59;18.60;55.70
35497;DHT22;21609;49.298;6.844;2022-11-15T05:40:25;18.60;55.70
35497;DHT22;21609;49.298;6.844;2022-11-15T05:42:51;18.50;55.60
35497;DHT22;21609;49.298;6.844;2022-11-15T05:45:16;18.50;55.60
35497;DHT22;21609;49.298;6.844;2022-11-15T05:47:42;18.50;55.70
35497;DHT22;21609;49.298;6.844;2022-11-15T05:50:14;18.50;55.70
35497;DHT22;21609;49.298;6.844;2022-11-15T05:52:42;18.50;55.70
35497;DHT22;21609;49.298;6.844;2022-11-15T05:55:08;18.50;55.70
35497;DHT22;21609;49.298;6.844;2022-11-15T05:57:34;18.50;55.70
35497;DHT22;21609;49.298;6.844;2022-11-15T06:00:01;18.50;55.80
35497;DHT22;21609;49.298;6.844;2022-11-15T06:02:27;18.50;55.70
35497;DHT22;21609;49.298;6.844;2022-11-15T06:04:52;18.50;55.80
35497;DHT22;21609;49.298;6.844;2022-11-15T06:07:18;18.50;56.00
35497;DHT22;21609;49.298;6.844;2022-11-15T06:09:43;18.50;56.00
35497;DHT22;21609;49.298;6.844;2022-11-15T06:12:09;18.40;56.00
35497;DHT22;21609;49.298;6.844;2022-11-15T06:14:34;18.40;56.20
35497;DHT22;21609;49.298;6.844;2022-11-15T06:17:00;18.40;56.10
35497;DHT22;21609;49.298;6.844;2022-11-15T06:19:25;18.40;56.10
35497;DHT22;21609;49.298;6.844;2022-11-15T06:21:51;18.40;56.00
35497;DHT22;21609;49.298;6.844;2022-11-15T06:24:17;18.40;56.00
35497;DHT22;21609;49.298;6.844;2022-11-15T06:26:42;18.40;56.00
35497;DHT22;21609;49.298;6.844;2022-11-15T06:29:08;18.40;56.60
35497;DHT22;21609;49.298;6.844;2022-11-15T06:31:34;18.40;56.00
35497;DHT22;21609;49.298;6.844;2022-11-15T06:34:00;18.40;56.00
35497;DHT22;21609;49.298;6.844;2022-11-15T06:36:25;18.40;56.00
35497;DHT22;21609;49.298;6.844;2022-11-15T06:38:51;18.40;56.10
35497;DHT22;21609;49.298;6.844;2022-11-15T06:41:16;18.30;56.00
35497;DHT22;21609;49.298;6.844;2022-11-15T06:43:43;18.40;56.10
35497;DHT22;21609;49.298;6.844;2022-11-15T06:46:09;18.30;56.00
35497;DHT22;21609;49.298;6.844;2022-11-15T06:48:34;18.30;56.00
35497;DHT22;21609;49.298;6.844;2022-11-15T06:51:03;18.40;56.10
35497;DHT22;21609;49.298;6.844;2022-11-15T06:53:29;18.30;56.10
35497;DHT22;21609;49.298;6.844;2022-11-15T06:56:00;18.30;56.00
35497;DHT22;21609;49.298;6.844;2022-11-15T06:58:26;18.30;56.10
35497;DHT22;21609;49.298;6.844;2022-11-15T07:00:51;18.30;56.20
35497;DHT22;21609;49.298;6.844;2022-11-15T07:03:17;18.30;56.20
35497;DHT22;21609;49.298;6.844;2022-11-15T07:05:49;18.30;56.30
35497;DHT22;21609;49.298;6.844;2022-11-15T07:08:15;18.30;56.30
35497;DHT22;21609;49.298;6.844;2022-11-15T07:10:40;18.30;56.30
35497;DHT22;21609;49.298;6.844;2022-11-15T07:13:06;18.30;56.40
35497;DHT22;21609;49.298;6.844;2022-11-15T07:15:31;18.30;56.50
35497;DHT22;21609;49.298;6.844;2022-11-15T07:18:00;18.30;56.50
35497;DHT22;21609;49.298;6.844;2022-11-15T07:20:26;18.30;56.50
35497;DHT22;21609;49.298;6.844;2022-11-15T07:22:59;18.30;56.50
35497;DHT22;21609;49.298;6.844;2022-11-15T07:25:25;18.30;56.60
35497;DHT22;21609;49.298;6.844;2022-11-15T07:27:55;18.30;56.40
35497;DHT22;21609;49.298;6.844;2022-11-15T07:30:21;18.30;56.50
35497;DHT22;21609;49.298;6.844;2022-11-15T07:32:47;18.20;56.40
35497;DHT22;21609;49.298;6.844;2022-11-15T07:35:12;18.20;56.40
35497;DHT22;21609;49.298;6.844;2022-11-15T07:37:38;18.20;56.50
35497;DHT22;21609;49.298;6.844;2022-11-15T07:40:04;18.20;56.40
35497;DHT22;21609;49.298;6.844;2022-11-15T07:42:32;18.20;56.70
35497;DHT22;21609;49.298;6.844;2022-11-15T07:45:17;18.20;56.60
35497;DHT22;21609;49.298;6.844;2022-11-15T07:47:45;18.20;56.50
35497;DHT22;21609;49.298;6.844;2022-11-15T07:50:11;18.20;56.50
35497;DHT22;21609;49.298;6.844;2022-11-15T07:52:37;18.20;56.50
35497;DHT22;21609;49.298;6.844;2022-11-15T07:55:02;18.20;56.50
35497;DHT22;21609;49.298;6.844;2022-11-15T07:57:29;18.20;56.50
35497;DHT22;21609;49.298;6.844;2022-11-15T07:59:54;18.20;56.60
35497;DHT22;21609;49.298;6.844;2022-11-15T08:02:20;18.10;56.70
35497;DHT22;21609;49.298;6.844;2022-11-15T08:04:46;18.20;56.60
35497;DHT22;21609;49.298;6.844;2022-11-15T08:07:11;18.20;56.60
35497;DHT22;21609;49.298;6.844;2022-11-15T08:09:37;18.20;56.70
35497;DHT22;21609;49.298;6.844;2022-11-15T08:12:02;18.20;56.60
35497;DHT22;21609;49.298;6.844;2022-11-15T08:14:28;18.20;56.60
35497;DHT22;21609;49.298;6.844;2022-11-15T08:16:54;18.20;56.60
35497;DHT22;21609;49.298;6.844;2022-11-15T08:19:20;18.20;56.60
35497;DHT22;21609;49.298;6.844;2022-11-15T08:21:46;18.20;56.60
35497;DHT22;21609;49.298;6.844;2022-11-15T08:24:11;18.10;56.50
35497;DHT22;21609;49.298;6.844;2022-11-15T08:26:37;18.10;56.60
35497;DHT22;21609;49.298;6.844;2022-11-15T08:29:03;18.30;56.50
35497;DHT22;21609;49.298;6.844;2022-11-15T08:31:29;18.30;56.20
35497;DHT22;21609;49.298;6.844;2022-11-15T08:33:54;18.40;56.30
35497;DHT22;21609;49.298;6.844;2022-11-15T08:36:20;18.40;56.20
35497;DHT22;21609;49.298;6.844;2022-11-15T08:38:45;18.40;56.20
35497;DHT22;21609;49.298;6.844;2022-11-15T08:41:16;18.40;56.30
35497;DHT22;21609;49.298;6.844;2022-11-15T08:43:44;18.40;56.30
35497;DHT22;21609;49.298;6.844;2022-11-15T08:46:13;18.50;57.00
35497;DHT22;21609;49.298;6.844;2022-11-15T08:48:39;18.50;56.40
35497;DHT22;21609;49.298;6.844;2022-11-15T08:51:04;18.50;56.40
35497;DHT22;21609;49.298;6.844;2022-11-15T08:53:30;18.50;56.50
35497;DHT22;21609;49.298;6.844;2022-11-15T08:55:56;18.60;56.50
35497;DHT22;21609;49.298;6.844;2022-11-15T08:58:21;18.60;56.60
35497;DHT22;21609;49.298;6.844;2022-11-15T09:00:47;18.70;56.70
35497;DHT22;21609;49.298;6.844;2022-11-15T09:03:12;18.70;56.70
35497;DHT22;21609;49.298;6.844;2022-11-15T09:05:38;18.80;56.70
35497;DHT22;21609;49.298;6.844;2022-11-15T09:08:04;18.80;56.70
35497;DHT22;21609;49.298;6.844;2022-11-15T09:10:30;18.80;56.70
35497;DHT22;21609;49.298;6.844;2022-11-15T09:12:57;18.90;56.70
35497;DHT22;21609;49.298;6.844;2022-11-15T09:15:23;18.90;56.80
35497;DHT22;21609;49.298;6.844;2022-11-15T09:17:48;19.00;56.80
35497;DHT22;21609;49.298;6.844;2022-11-15T09:20:14;19.00;56.70
35497;DHT22;21609;49.298;6.844;2022-11-15T09:22:40;19.00;56.80
35497;DHT22;21609;49.298;6.844;2022-11-15T09:25:06;19.00;56.80
35497;DHT22;21609;49.298;6.844;2022-11-15T09:27:32;19.00;56.70
35497;DHT22;21609;49.298;6.844;2022-11-15T09:29:57;19.00;56.60
35497;DHT22;21609;49.298;6.844;2022-11-15T09:32:23;19.10;56.80
35497;DHT22;21609;49.298;6.844;2022-11-15T09:34:49;19.10;56.80
35497;DHT22;21609;49.298;6.844;2022-11-15T09:37:15;19.10;56.70
35497;DHT22;21609;49.298;6.844;2022-11-15T09:39:41;19.10;56.70
35497;DHT22;21609;49.298;6.844;2022-11-15T09:45:10;19.20;56.80
35497;DHT22;21609;49.298;6.844;2022-11-15T09:50:49;19.20;56.80
35497;DHT22;21609;49.298;6.844;2022-11-15T09:56:05;19.20;56.70
35497;DHT22;21609;49.298;6.844;2022-11-15T10:01:19;19.30;56.80
35497;DHT22;21609;49.298;6.844;2022-11-15T10:03:49;19.30;56.60
35497;DHT22;21609;49.298;6.844;2022-11-15T10:06:22;19.30;56.60
35497;DHT22;21609;49.298;6.844;2022-11-15T10:11:28;19.40;56.60
35497;DHT22;21609;49.298;6.844;2022-11-15T10:13:58;19.30;56.70
35497;DHT22;21609;49.298;6.844;2022-11-15T10:16:45;19.30;56.70
35497;DHT22;21609;49.298;6.844;2022-11-15T10:21:54;19.40;56.60
35497;DHT22;21609;49.298;6.844;2022-11-15T10:24:25;19.40;56.60
35497;DHT22;21609;49.298;6.844;2022-11-15T10:26:55;19.40;56.50
35497;DHT22;21609;49.298;6.844;2022-11-15T10:29:23;19.50;56.50
35497;DHT22;21609;49.298;6.844;2022-11-15T10:31:49;19.50;56.50
35497;DHT22;21609;49.298;6.844;2022-11-15T10:34:20;19.50;56.50
35497;DHT22;21609;49.298;6.844;2022-11-15T10:36:54;19.50;56.50
35497;DHT22;21609;49.298;6.844;2022-11-15T10:39:19;19.50;56.40
35497;DHT22;21609;49.298;6.844;2022-11-15T10:41:45;19.60;56.50
35497;DHT22;21609;49.298;6.844;2022-11-15T10:46:44;19.40;56.20
35497;DHT22;21609;49.298;6.844;2022-11-15T10:49:19;19.50;56.60
35497;DHT22;21609;49.298;6.844;2022-11-15T10:51:49;19.60;56.60
35497;DHT22;21609;49.298;6.844;2022-11-15T10:54:23;19.70;56.50
35497;DHT22;21609;49.298;6.844;2022-11-15T10:56:51;19.80;56.40
35497;DHT22;21609;49.298;6.844;2022-11-15T10:59:31;19.80;56.30
35497;DHT22;21609;49.298;6.844;2022-11-15T11:01:59;20.00;56.30
35497;DHT22;21609;49.298;6.844;2022-11-15T11:04:25;20.10;56.20
35497;DHT22;21609;49.298;6.844;2022-11-15T11:06:58;20.10;56.10
35497;DHT22;21609;49.298;6.844;2022-11-15T11:09:33;20.20;56.20
35497;DHT22;21609;49.298;6.844;2022-11-15T11:12:00;20.10;56.20
35497;DHT22;21609;49.298;6.844;2022-11-15T11:14:34;20.10;56.20
35497;DHT22;21609;49.298;6.844;2022-11-15T11:17:17;20.10;56.40
35497;DHT22;21609;49.298;6.844;2022-11-15T11:35:34;20.20;56.40
35497;DHT22;21609;49.298;6.844;2022-11-15T11:41:24;20.10;56.40
35497;DHT22;21609;49.298;6.844;2022-11-15T11:49:01;20.30;56.10
35497;DHT22;21609;49.298;6.844;2022-11-15T11:51:34;20.30;56.40
35497;DHT22;21609;49.298;6.844;2022-11-15T11:54:13;20.30;56.40
35497;DHT22;21609;49.298;6.844;2022-11-15T11:56:44;20.30;56.30
35497;DHT22;21609;49.298;6.844;2022-11-15T12:01:47;20.30;56.20
35497;DHT22;21609;49.298;6.844;2022-11-15T12:04:24;20.40;56.30
35497;DHT22;21609;49.298;6.844;2022-11-15T12:07:13;20.40;56.10
35497;DHT22;21609;49.298;6.844;2022-11-15T12:15:23;20.50;56.00
35497;DHT22;21609;49.298;6.844;2022-11-15T12:17:50;20.50;56.20
35497;DHT22;21609;49.298;6.844;2022-11-15T12:20:25;20.50;55.90
35497;DHT22;21609;49.298;6.844;2022-11-15T12:23:13;20.50;55.90
35497;DHT22;21609;49.298;6.844;2022-11-15T12:26:10;20.50;56.00
35497;DHT22;21609;49.298;6.844;2022-11-15T12:28:52;20.50;55.50
35497;DHT22;21609;49.298;6.844;2022-11-15T12:31:27;20.50;55.90
35497;DHT22;21609;49.298;6.844;2022-11-15T12:33:56;20.50;55.80
35497;DHT22;21609;49.298;6.844;2022-11-15T12:38:57;20.50;55.80
35497;DHT22;21609;49.298;6.844;2022-11-15T12:43:54;20.50;55.80
35497;DHT22;21609;49.298;6.844;2022-11-15T12:49:42;20.50;55.80
35497;DHT22;21609;49.298;6.844;2022-11-15T12:52:08;20.40;55.60
35497;DHT22;21609;49.298;6.844;2022-11-15T12:59:56;20.50;55.70
35497;DHT22;21609;49.298;6.844;2022-11-15T13:02:31;20.60;55.50
35497;DHT22;21609;49.298;6.844;2022-11-15T13:05:25;20.60;55.50
35497;DHT22;21609;49.298;6.844;2022-11-15T13:07:57;20.60;55.30
35497;DHT22;21609;49.298;6.844;2022-11-15T13:10:33;20.50;55.40
35497;DHT22;21609;49.298;6.844;2022-11-15T13:13:08;20.60;55.30
35497;DHT22;21609;49.298;6.844;2022-11-15T13:16:21;20.70;54.80
35497;DHT22;21609;49.298;6.844;2022-11-15T13:20:50;20.60;55.30
35497;DHT22;21609;49.298;6.844;2022-11-15T13:23:16;20.60;55.50
35497;DHT22;21609;49.298;6.844;2022-11-15T13:28:32;20.60;55.30
35497;DHT22;21609;49.298;6.844;2022-11-15T13:31:13;20.70;55.30
35497;DHT22;21609;49.298;6.844;2022-11-15T13:33:39;20.70;55.50
35497;DHT22;21609;49.298;6.844;2022-11-15T13:38:54;20.80;55.10
35497;DHT22;21609;49.298;6.844;2022-11-15T13:41:24;20.80;55.10
35497;DHT22;21609;49.298;6.844;2022-11-15T13:43:52;20.80;55.20
35497;DHT22;21609;49.298;6.844;2022-11-15T13:46:20;20.80;55.30
35497;DHT22;21609;49.298;6.844;2022-11-15T13:48:51;20.80;55.40
35497;DHT22;21609;49.298;6.844;2022-11-15T13:56:49;20.80;55.20
35497;DHT22;21609;49.298;6.844;2022-11-15T13:59:28;20.80;55.20
35497;DHT22;21609;49.298;6.844;2022-11-15T14:01:55;20.80;55.20
35497;DHT22;21609;49.298;6.844;2022-11-15T14:04:23;20.70;55.40
35497;DHT22;21609;49.298;6.844;2022-11-15T14:06:53;20.80;55.30
35497;DHT22;21609;49.298;6.844;2022-11-15T14:11:53;20.70;55.30
35497;DHT22;21609;49.298;6.844;2022-11-15T14:14:21;20.80;55.20
35497;DHT22;21609;49.298;6.844;2022-11-15T14:16:58;20.70;55.20
35497;DHT22;21609;49.298;6.844;2022-11-15T14:22:22;20.70;55.20
35497;DHT22;21609;49.298;6.844;2022-11-15T14:27:39;20.70;55.00
35497;DHT22;21609;49.298;6.844;2022-11-15T14:30:06;20.70;55.20
35497;DHT22;21609;49.298;6.844;2022-11-15T14:32:47;20.70;55.20
35497;DHT22;21609;49.298;6.844;2022-11-15T14:35:19;20.70;55.20
35497;DHT22;21609;49.298;6.844;2022-11-15T14:37:45;20.60;55.20
35497;DHT22;21609;49.298;6.844;2022-11-15T14:40:19;20.60;55.20
35497;DHT22;21609;49.298;6.844;2022-11-15T14:42:47;20.60;55.20
35497;DHT22;21609;49.298;6.844;2022-11-15T14:45:19;20.60;55.20
35497;DHT22;21609;49.298;6.844;2022-11-15T14:47:44;20.60;55.20
35497;DHT22;21609;49.298;6.844;2022-11-15T14:50:15;20.60;55.10
35497;DHT22;21609;49.298;6.844;2022-11-15T14:52:41;20.60;55.20
35497;DHT22;21609;49.298;6.844;2022-11-15T14:55:23;20.60;55.20
35497;DHT22;21609;49.298;6.844;2022-11-15T14:57:49;20.60;55.00
35497;DHT22;21609;49.298;6.844;2022-11-15T15:00:16;20.60;55.20
35497;DHT22;21609;49.298;6.844;2022-11-15T15:02:43;20.60;55.10
35497;DHT22;21609;49.298;6.844;2022-11-15T15:05:25;20.60;55.10
35497;DHT22;21609;49.298;6.844;2022-11-15T15:07:51;20.60;55.00
35497;DHT22;21609;49.298;6.844;2022-11-15T15:10:18;20.60;55.20
35497;DHT22;21609;49.298;6.844;2022-11-15T15:12:44;20.60;55.10
35497;DHT22;21609;49.298;6.844;2022-11-15T15:15:20;20.60;55.10
35497;DHT22;21609;49.298;6.844;2022-11-15T15:17:47;20.60;55.60
35497;DHT22;21609;49.298;6.844;2022-11-15T15:20:12;20.60;55.10
35497;DHT22;21609;49.298;6.844;2022-11-15T15:22:38;20.60;55.10
35497;DHT22;21609;49.298;6.844;2022-11-15T15:27:48;20.60;54.90
35497;DHT22;21609;49.298;6.844;2022-11-15T15:30:13;20.60;55.10
35497;DHT22;21609;49.298;6.844;2022-11-15T15:32:39;20.60;55.10
35497;DHT22;21609;49.298;6.844;2022-11-15T15:35:05;20.50;55.20
35497;DHT22;21609;49.298;6.844;2022-11-15T15:37:31;20.50;55.00
35497;DHT22;21609;49.298;6.844;2022-11-15T15:39:58;20.50;55.10
35497;DHT22;21609;49.298;6.844;2022-11-15T15:42:24;20.50;55.10
35497;DHT22;21609;49.298;6.844;2022-11-15T15:44:50;20.50;55.10
35497;DHT22;21609;49.298;6.844;2022-11-15T15:47:25;20.50;55.00
35497;DHT22;21609;49.298;6.844;2022-11-15T15:49:51;20.50;55.00
35497;DHT22;21609;49.298;6.844;2022-11-15T15:52:17;20.50;55.00
35497;DHT22;21609;49.298;6.844;2022-11-15T15:54:42;20.50;55.10
35497;DHT22;21609;49.298;6.844;2022-11-15T15:57:11;20.50;55.10
35497;DHT22;21609;49.298;6.844;2022-11-15T15:59:37;20.50;55.00
35497;DHT22;21609;49.298;6.844;2022-11-15T16:02:03;20.50;55.00
35497;DHT22;21609;49.298;6.844;2022-11-15T16:04:29;20.50;55.10
35497;DHT22;21609;49.298;6.844;2022-11-15T16:06:59;20.50;55.10
35497;DHT22;21609;49.298;6.844;2022-11-15T16:09:24;20.50;55.00
35497;DHT22;21609;49.298;6.844;2022-11-15T16:12:09;20.50;55.00
35497;DHT22;21609;49.298;6.844;2022-11-15T16:14:34;20.50;55.10
35497;DHT22;21609;49.298;6.844;2022-11-15T16:17:00;20.60;55.10
35497;DHT22;21609;49.298;6.844;2022-11-15T16:19:25;20.60;55.00
35497;DHT22;21609;49.298;6.844;2022-11-15T16:21:51;20.60;54.90
35497;DHT22;21609;49.298;6.844;2022-11-15T16:24:20;20.60;55.00
35497;DHT22;21609;49.298;6.844;2022-11-15T16:26:47;20.60;55.50
35497;DHT22;21609;49.298;6.844;2022-11-15T16:29:13;20.60;54.90
35497;DHT22;21609;49.298;6.844;2022-11-15T16:31:39;20.60;54.80
35497;DHT22;21609;49.298;6.844;2022-11-15T16:34:04;20.60;54.90
35497;DHT22;21609;49.298;6.844;2022-11-15T16:36:33;20.60;54.80
35497;DHT22;21609;49.298;6.844;2022-11-15T16:38:59;20.60;54.80
35497;DHT22;21609;49.298;6.844;2022-11-15T16:41:26;20.60;54.90
35497;DHT22;21609;49.298;6.844;2022-11-15T16:43:51;20.60;54.90
35497;DHT22;21609;49.298;6.844;2022-11-15T16:46:22;20.60;55.10
35497;DHT22;21609;49.298;6.844;2022-11-15T16:48:49;20.60;55.10
35497;DHT22;21609;49.298;6.844;2022-11-15T16:51:15;20.60;55.10
35497;DHT22;21609;49.298;6.844;2022-11-15T16:53:41;20.60;55.00
35497;DHT22;21609;49.298;6.844;2022-11-15T16:56:25;20.60;55.00
35497;DHT22;21609;49.298;6.844;2022-11-15T16:58:55;20.60;54.80
35497;DHT22;21609;49.298;6.844;2022-11-15T17:01:43;20.70;54.90
35497;DHT22;21609;49.298;6.844;2022-11-15T17:04:18;20.70;54.70
35497;DHT22;21609;49.298;6.844;2022-11-15T17:06:45;20.60;54.90
35497;DHT22;21609;49.298;6.844;2022-11-15T17:09:19;20.60;55.00
35497;DHT22;21609;49.298;6.844;2022-11-15T17:11:45;20.60;55.00
35497;DHT22;21609;49.298;6.844;2022-11-15T17:14:11;20.70;55.00
35497;DHT22;21609;49.298;6.844;2022-11-15T17:16:37;20.70;55.10
35497;DHT22;21609;49.298;6.844;2022-11-15T17:19:11;20.70;54.90
35497;DHT22;21609;49.298;6.844;2022-11-15T17:21:37;20.70;54.90
35497;DHT22;21609;49.298;6.844;2022-11-15T17:24:02;20.70;55.00
35497;DHT22;21609;49.298;6.844;2022-11-15T17:26:28;20.70;54.90
35497;DHT22;21609;49.298;6.844;2022-11-15T17:28:55;20.70;55.10
35497;DHT22;21609;49.298;6.844;2022-11-15T17:31:21;20.60;55.10
35497;DHT22;21609;49.298;6.844;2022-11-15T17:33:47;20.60;55.10